<?xml version="1.0" encoding="UTF-8" standalone="no" ?>
<gpx xmlns="http://www.topografix.com/GPX/1/1" xmlns:xsi="http://www.w3.org/2001/XMLSchema-instance" xsi:schemaLocation="http://www.topografix.com/GPX/1/1 http://www.topografix.com/GPX/1/1/gpx.xsd" version="1.1" creator="VisuGPX - https://www.visugpx.com">
  <metadata>
    <name>Boucle cool Rando2C Jean Claude</name>
    <desc><![CDATA[Walkmeter Marche 20 déc. 2018 à 14:12:44]]></desc>
  </metadata>
  <trk>
    <name><![CDATA[Nouveau parcours]]></name>
    <trkseg>
      <trkpt lat="49.21547" lon="6.69714">
        <ele>208.7</ele>
        <time>2018-12-20T13:12:44Z</time>
      </trkpt>
      <trkpt lat="49.21553" lon="6.69719">
        <ele>208.8</ele>
        <time>2018-12-20T13:12:53Z</time>
      </trkpt>
      <trkpt lat="49.2156" lon="6.69728">
        <ele>209.1</ele>
        <time>2018-12-20T13:13:04Z</time>
      </trkpt>
      <trkpt lat="49.21566" lon="6.69738">
        <ele>209.3</ele>
        <time>2018-12-20T13:13:14Z</time>
      </trkpt>
      <trkpt lat="49.21577" lon="6.69753">
        <ele>209.7</ele>
        <time>2018-12-20T13:13:29Z</time>
      </trkpt>
      <trkpt lat="49.21588" lon="6.69767">
        <ele>210.1</ele>
        <time>2018-12-20T13:13:44Z</time>
      </trkpt>
      <trkpt lat="49.21598" lon="6.69782">
        <ele>210.4</ele>
        <time>2018-12-20T13:13:57Z</time>
      </trkpt>
      <trkpt lat="49.21607" lon="6.69801">
        <ele>210.7</ele>
        <time>2018-12-20T13:14:10Z</time>
      </trkpt>
      <trkpt lat="49.21613" lon="6.6982">
        <ele>211</ele>
        <time>2018-12-20T13:14:23Z</time>
      </trkpt>
      <trkpt lat="49.21616" lon="6.69842">
        <ele>211.3</ele>
        <time>2018-12-20T13:14:36Z</time>
      </trkpt>
      <trkpt lat="49.21618" lon="6.69863">
        <ele>211.6</ele>
        <time>2018-12-20T13:14:48Z</time>
      </trkpt>
      <trkpt lat="49.2162" lon="6.69869">
        <ele>211.7</ele>
        <time>2018-12-20T13:14:52Z</time>
      </trkpt>
      <trkpt lat="49.21623" lon="6.69883">
        <ele>212.2</ele>
        <time>2018-12-20T13:15:00Z</time>
      </trkpt>
      <trkpt lat="49.2163" lon="6.69902">
        <ele>213</ele>
        <time>2018-12-20T13:15:12Z</time>
      </trkpt>
      <trkpt lat="49.21638" lon="6.69921">
        <ele>213.8</ele>
        <time>2018-12-20T13:15:23Z</time>
      </trkpt>
      <trkpt lat="49.21647" lon="6.69939">
        <ele>214.6</ele>
        <time>2018-12-20T13:15:34Z</time>
      </trkpt>
      <trkpt lat="49.21653" lon="6.69953">
        <ele>215.2</ele>
        <time>2018-12-20T13:15:43Z</time>
      </trkpt>
      <trkpt lat="49.21655" lon="6.69957">
        <ele>215.5</ele>
        <time>2018-12-20T13:15:46Z</time>
      </trkpt>
      <trkpt lat="49.21662" lon="6.69975">
        <ele>216.8</ele>
        <time>2018-12-20T13:15:57Z</time>
      </trkpt>
      <trkpt lat="49.21669" lon="6.69995">
        <ele>218.3</ele>
        <time>2018-12-20T13:16:10Z</time>
      </trkpt>
      <trkpt lat="49.21675" lon="6.70014">
        <ele>218.6</ele>
        <time>2018-12-20T13:16:23Z</time>
      </trkpt>
      <trkpt lat="49.21678" lon="6.70036">
        <ele>218.8</ele>
        <time>2018-12-20T13:16:36Z</time>
      </trkpt>
      <trkpt lat="49.21681" lon="6.70057">
        <ele>219.2</ele>
        <time>2018-12-20T13:16:52Z</time>
      </trkpt>
      <trkpt lat="49.21685" lon="6.70079">
        <ele>219.5</ele>
        <time>2018-12-20T13:17:09Z</time>
      </trkpt>
      <trkpt lat="49.21691" lon="6.70096">
        <ele>219.8</ele>
        <time>2018-12-20T13:17:22Z</time>
      </trkpt>
      <trkpt lat="49.21696" lon="6.70117">
        <ele>220.1</ele>
        <time>2018-12-20T13:17:35Z</time>
      </trkpt>
      <trkpt lat="49.21696" lon="6.70139">
        <ele>220.3</ele>
        <time>2018-12-20T13:17:45Z</time>
      </trkpt>
      <trkpt lat="49.21697" lon="6.70161">
        <ele>220.5</ele>
        <time>2018-12-20T13:17:55Z</time>
      </trkpt>
      <trkpt lat="49.21698" lon="6.70183">
        <ele>220.7</ele>
        <time>2018-12-20T13:18:06Z</time>
      </trkpt>
      <trkpt lat="49.21698" lon="6.70205">
        <ele>220.9</ele>
        <time>2018-12-20T13:18:15Z</time>
      </trkpt>
      <trkpt lat="49.21697" lon="6.70229">
        <ele>221.1</ele>
        <time>2018-12-20T13:18:25Z</time>
      </trkpt>
      <trkpt lat="49.21699" lon="6.70247">
        <ele>221.4</ele>
        <time>2018-12-20T13:18:38Z</time>
      </trkpt>
      <trkpt lat="49.21701" lon="6.70267">
        <ele>221.6</ele>
        <time>2018-12-20T13:18:50Z</time>
      </trkpt>
      <trkpt lat="49.21696" lon="6.7029">
        <ele>221.8</ele>
        <time>2018-12-20T13:18:59Z</time>
      </trkpt>
      <trkpt lat="49.21695" lon="6.70293">
        <ele>221.8</ele>
        <time>2018-12-20T13:19:00Z</time>
      </trkpt>
      <trkpt lat="49.21691" lon="6.70315">
        <ele>222.2</ele>
        <time>2018-12-20T13:19:11Z</time>
      </trkpt>
      <trkpt lat="49.21687" lon="6.70337">
        <ele>222.7</ele>
        <time>2018-12-20T13:19:25Z</time>
      </trkpt>
      <trkpt lat="49.21685" lon="6.70359">
        <ele>223.2</ele>
        <time>2018-12-20T13:19:39Z</time>
      </trkpt>
      <trkpt lat="49.21684" lon="6.7038">
        <ele>223.5</ele>
        <time>2018-12-20T13:19:50Z</time>
      </trkpt>
      <trkpt lat="49.21682" lon="6.70402">
        <ele>224</ele>
        <time>2018-12-20T13:20:04Z</time>
      </trkpt>
      <trkpt lat="49.21678" lon="6.70422">
        <ele>224.6</ele>
        <time>2018-12-20T13:20:20Z</time>
      </trkpt>
      <trkpt lat="49.21679" lon="6.7044">
        <ele>225</ele>
        <time>2018-12-20T13:20:32Z</time>
      </trkpt>
      <trkpt lat="49.21679" lon="6.70442">
        <ele>225</ele>
        <time>2018-12-20T13:20:33Z</time>
      </trkpt>
      <trkpt lat="49.2168" lon="6.7046">
        <ele>225.6</ele>
        <time>2018-12-20T13:20:42Z</time>
      </trkpt>
      <trkpt lat="49.21681" lon="6.70477">
        <ele>226.1</ele>
        <time>2018-12-20T13:20:51Z</time>
      </trkpt>
      <trkpt lat="49.21687" lon="6.70497">
        <ele>226.8</ele>
        <time>2018-12-20T13:21:02Z</time>
      </trkpt>
      <trkpt lat="49.2169" lon="6.70518">
        <ele>227.5</ele>
        <time>2018-12-20T13:21:13Z</time>
      </trkpt>
      <trkpt lat="49.21693" lon="6.70539">
        <ele>228.2</ele>
        <time>2018-12-20T13:21:25Z</time>
      </trkpt>
      <trkpt lat="49.21693" lon="6.7054">
        <ele>228.3</ele>
        <time>2018-12-20T13:21:26Z</time>
      </trkpt>
      <trkpt lat="49.21697" lon="6.7056">
        <ele>228.8</ele>
        <time>2018-12-20T13:21:38Z</time>
      </trkpt>
      <trkpt lat="49.21702" lon="6.7058">
        <ele>229.3</ele>
        <time>2018-12-20T13:21:50Z</time>
      </trkpt>
      <trkpt lat="49.21707" lon="6.70602">
        <ele>229.7</ele>
        <time>2018-12-20T13:22:01Z</time>
      </trkpt>
      <trkpt lat="49.21709" lon="6.70624">
        <ele>230.1</ele>
        <time>2018-12-20T13:22:11Z</time>
      </trkpt>
      <trkpt lat="49.21713" lon="6.70644">
        <ele>230.6</ele>
        <time>2018-12-20T13:22:22Z</time>
      </trkpt>
      <trkpt lat="49.21717" lon="6.70665">
        <ele>231.1</ele>
        <time>2018-12-20T13:22:35Z</time>
      </trkpt>
      <trkpt lat="49.21722" lon="6.70676">
        <ele>231.5</ele>
        <time>2018-12-20T13:22:44Z</time>
      </trkpt>
      <trkpt lat="49.21725" lon="6.70682">
        <ele>231.6</ele>
        <time>2018-12-20T13:22:49Z</time>
      </trkpt>
      <trkpt lat="49.21734" lon="6.70698">
        <ele>232.1</ele>
        <time>2018-12-20T13:23:04Z</time>
      </trkpt>
      <trkpt lat="49.21743" lon="6.70716">
        <ele>232.5</ele>
        <time>2018-12-20T13:23:18Z</time>
      </trkpt>
      <trkpt lat="49.21752" lon="6.70733">
        <ele>232.8</ele>
        <time>2018-12-20T13:23:30Z</time>
      </trkpt>
      <trkpt lat="49.21759" lon="6.70753">
        <ele>233.1</ele>
        <time>2018-12-20T13:23:41Z</time>
      </trkpt>
      <trkpt lat="49.21765" lon="6.70767">
        <ele>233.4</ele>
        <time>2018-12-20T13:23:51Z</time>
      </trkpt>
      <trkpt lat="49.21773" lon="6.70779">
        <ele>233.7</ele>
        <time>2018-12-20T13:23:59Z</time>
      </trkpt>
      <trkpt lat="49.2178" lon="6.70797">
        <ele>234</ele>
        <time>2018-12-20T13:24:09Z</time>
      </trkpt>
      <trkpt lat="49.21788" lon="6.70817">
        <ele>234.3</ele>
        <time>2018-12-20T13:24:20Z</time>
      </trkpt>
      <trkpt lat="49.21794" lon="6.70837">
        <ele>234.6</ele>
        <time>2018-12-20T13:24:32Z</time>
      </trkpt>
      <trkpt lat="49.21798" lon="6.70855">
        <ele>235</ele>
        <time>2018-12-20T13:24:46Z</time>
      </trkpt>
      <trkpt lat="49.218" lon="6.70862">
        <ele>235.2</ele>
        <time>2018-12-20T13:24:50Z</time>
      </trkpt>
      <trkpt lat="49.21804" lon="6.70874">
        <ele>236</ele>
        <time>2018-12-20T13:24:58Z</time>
      </trkpt>
      <trkpt lat="49.21812" lon="6.70893">
        <ele>237.1</ele>
        <time>2018-12-20T13:25:09Z</time>
      </trkpt>
      <trkpt lat="49.21822" lon="6.70913">
        <ele>238.5</ele>
        <time>2018-12-20T13:25:22Z</time>
      </trkpt>
      <trkpt lat="49.21825" lon="6.70918">
        <ele>239</ele>
        <time>2018-12-20T13:25:26Z</time>
      </trkpt>
      <trkpt lat="49.21833" lon="6.70929">
        <ele>239.5</ele>
        <time>2018-12-20T13:25:35Z</time>
      </trkpt>
      <trkpt lat="49.21843" lon="6.70941">
        <ele>240.2</ele>
        <time>2018-12-20T13:25:47Z</time>
      </trkpt>
      <trkpt lat="49.21851" lon="6.7096">
        <ele>240.8</ele>
        <time>2018-12-20T13:25:59Z</time>
      </trkpt>
      <trkpt lat="49.21858" lon="6.70978">
        <ele>241.6</ele>
        <time>2018-12-20T13:26:13Z</time>
      </trkpt>
      <trkpt lat="49.2186" lon="6.70985">
        <ele>242</ele>
        <time>2018-12-20T13:26:20Z</time>
      </trkpt>
      <trkpt lat="49.21865" lon="6.70996">
        <ele>242.6</ele>
        <time>2018-12-20T13:26:32Z</time>
      </trkpt>
      <trkpt lat="49.21872" lon="6.71015">
        <ele>243.4</ele>
        <time>2018-12-20T13:26:49Z</time>
      </trkpt>
      <trkpt lat="49.21879" lon="6.71033">
        <ele>243.9</ele>
        <time>2018-12-20T13:27:01Z</time>
      </trkpt>
      <trkpt lat="49.21889" lon="6.71052">
        <ele>244.6</ele>
        <time>2018-12-20T13:27:14Z</time>
      </trkpt>
      <trkpt lat="49.21899" lon="6.7107">
        <ele>245.1</ele>
        <time>2018-12-20T13:27:26Z</time>
      </trkpt>
      <trkpt lat="49.21902" lon="6.71087">
        <ele>245.6</ele>
        <time>2018-12-20T13:27:37Z</time>
      </trkpt>
      <trkpt lat="49.21902" lon="6.7109">
        <ele>245.8</ele>
        <time>2018-12-20T13:27:39Z</time>
      </trkpt>
      <trkpt lat="49.21905" lon="6.71111">
        <ele>247.3</ele>
        <time>2018-12-20T13:27:51Z</time>
      </trkpt>
      <trkpt lat="49.21912" lon="6.71131">
        <ele>248.6</ele>
        <time>2018-12-20T13:28:02Z</time>
      </trkpt>
      <trkpt lat="49.21915" lon="6.71139">
        <ele>249.2</ele>
        <time>2018-12-20T13:28:07Z</time>
      </trkpt>
      <trkpt lat="49.21918" lon="6.71151">
        <ele>249.6</ele>
        <time>2018-12-20T13:28:14Z</time>
      </trkpt>
      <trkpt lat="49.21923" lon="6.71173">
        <ele>250.1</ele>
        <time>2018-12-20T13:28:24Z</time>
      </trkpt>
      <trkpt lat="49.21925" lon="6.71192">
        <ele>250.5</ele>
        <time>2018-12-20T13:28:33Z</time>
      </trkpt>
      <trkpt lat="49.21926" lon="6.71198">
        <ele>250.7</ele>
        <time>2018-12-20T13:28:36Z</time>
      </trkpt>
      <trkpt lat="49.21927" lon="6.71214">
        <ele>251.1</ele>
        <time>2018-12-20T13:28:44Z</time>
      </trkpt>
      <trkpt lat="49.21932" lon="6.71232">
        <ele>251.5</ele>
        <time>2018-12-20T13:28:53Z</time>
      </trkpt>
      <trkpt lat="49.2194" lon="6.7125">
        <ele>252</ele>
        <time>2018-12-20T13:29:04Z</time>
      </trkpt>
      <trkpt lat="49.21947" lon="6.71261">
        <ele>252.5</ele>
        <time>2018-12-20T13:29:13Z</time>
      </trkpt>
      <trkpt lat="49.2195" lon="6.71266">
        <ele>252.6</ele>
        <time>2018-12-20T13:29:17Z</time>
      </trkpt>
      <trkpt lat="49.21961" lon="6.71278">
        <ele>252.9</ele>
        <time>2018-12-20T13:29:28Z</time>
      </trkpt>
      <trkpt lat="49.2197" lon="6.71295">
        <ele>253.2</ele>
        <time>2018-12-20T13:29:40Z</time>
      </trkpt>
      <trkpt lat="49.21977" lon="6.71314">
        <ele>253.6</ele>
        <time>2018-12-20T13:29:54Z</time>
      </trkpt>
      <trkpt lat="49.21987" lon="6.71327">
        <ele>253.9</ele>
        <time>2018-12-20T13:30:07Z</time>
      </trkpt>
      <trkpt lat="49.21999" lon="6.71324">
        <ele>254.2</ele>
        <time>2018-12-20T13:30:20Z</time>
      </trkpt>
      <trkpt lat="49.22009" lon="6.71311">
        <ele>254.6</ele>
        <time>2018-12-20T13:30:36Z</time>
      </trkpt>
      <trkpt lat="49.22017" lon="6.71299">
        <ele>254.9</ele>
        <time>2018-12-20T13:30:47Z</time>
      </trkpt>
      <trkpt lat="49.22025" lon="6.71295">
        <ele>255.2</ele>
        <time>2018-12-20T13:30:56Z</time>
      </trkpt>
      <trkpt lat="49.22036" lon="6.71288">
        <ele>255.4</ele>
        <time>2018-12-20T13:31:06Z</time>
      </trkpt>
      <trkpt lat="49.22047" lon="6.71272">
        <ele>255.7</ele>
        <time>2018-12-20T13:31:18Z</time>
      </trkpt>
      <trkpt lat="49.22054" lon="6.71256">
        <ele>256.1</ele>
        <time>2018-12-20T13:31:33Z</time>
      </trkpt>
      <trkpt lat="49.22056" lon="6.71253">
        <ele>256.2</ele>
        <time>2018-12-20T13:31:37Z</time>
      </trkpt>
      <trkpt lat="49.22063" lon="6.71246">
        <ele>256.3</ele>
        <time>2018-12-20T13:31:46Z</time>
      </trkpt>
      <trkpt lat="49.22094" lon="6.71212">
        <ele>256.8</ele>
        <time>2018-12-20T13:32:00Z</time>
      </trkpt>
      <trkpt lat="49.22094" lon="6.71212">
        <ele>256.8</ele>
        <time>2018-12-20T13:35:46Z</time>
      </trkpt>
      <trkpt lat="49.22114" lon="6.71186">
        <ele>257.3</ele>
        <time>2018-12-20T13:35:56Z</time>
      </trkpt>
      <trkpt lat="49.22112" lon="6.71164">
        <ele>257.4</ele>
        <time>2018-12-20T13:36:13Z</time>
      </trkpt>
      <trkpt lat="49.2211" lon="6.7114">
        <ele>257.5</ele>
        <time>2018-12-20T13:36:29Z</time>
      </trkpt>
      <trkpt lat="49.22109" lon="6.71117">
        <ele>257.5</ele>
        <time>2018-12-20T13:36:41Z</time>
      </trkpt>
      <trkpt lat="49.22105" lon="6.71098">
        <ele>257.6</ele>
        <time>2018-12-20T13:36:51Z</time>
      </trkpt>
      <trkpt lat="49.22099" lon="6.71079">
        <ele>257.6</ele>
        <time>2018-12-20T13:37:01Z</time>
      </trkpt>
      <trkpt lat="49.22091" lon="6.71059">
        <ele>257.7</ele>
        <time>2018-12-20T13:37:10Z</time>
      </trkpt>
      <trkpt lat="49.22084" lon="6.71037">
        <ele>257.7</ele>
        <time>2018-12-20T13:37:21Z</time>
      </trkpt>
      <trkpt lat="49.22081" lon="6.71016">
        <ele>257.8</ele>
        <time>2018-12-20T13:37:32Z</time>
      </trkpt>
      <trkpt lat="49.22078" lon="6.70995">
        <ele>257.8</ele>
        <time>2018-12-20T13:37:44Z</time>
      </trkpt>
      <trkpt lat="49.22074" lon="6.70974">
        <ele>257.9</ele>
        <time>2018-12-20T13:37:58Z</time>
      </trkpt>
      <trkpt lat="49.22069" lon="6.70954">
        <ele>257.9</ele>
        <time>2018-12-20T13:38:10Z</time>
      </trkpt>
      <trkpt lat="49.22062" lon="6.70933">
        <ele>258</ele>
        <time>2018-12-20T13:38:21Z</time>
      </trkpt>
      <trkpt lat="49.22058" lon="6.70914">
        <ele>258</ele>
        <time>2018-12-20T13:38:30Z</time>
      </trkpt>
      <trkpt lat="49.22056" lon="6.70897">
        <ele>258</ele>
        <time>2018-12-20T13:38:39Z</time>
      </trkpt>
      <trkpt lat="49.22051" lon="6.70879">
        <ele>258.1</ele>
        <time>2018-12-20T13:38:49Z</time>
      </trkpt>
      <trkpt lat="49.22045" lon="6.7086">
        <ele>258.1</ele>
        <time>2018-12-20T13:39:00Z</time>
      </trkpt>
      <trkpt lat="49.22039" lon="6.7084">
        <ele>258.2</ele>
        <time>2018-12-20T13:39:14Z</time>
      </trkpt>
      <trkpt lat="49.22036" lon="6.70819">
        <ele>258.3</ele>
        <time>2018-12-20T13:39:28Z</time>
      </trkpt>
      <trkpt lat="49.22033" lon="6.70797">
        <ele>258.3</ele>
        <time>2018-12-20T13:39:40Z</time>
      </trkpt>
      <trkpt lat="49.22032" lon="6.70784">
        <ele>258.3</ele>
        <time>2018-12-20T13:39:47Z</time>
      </trkpt>
      <trkpt lat="49.2203" lon="6.70772">
        <ele>258.4</ele>
        <time>2018-12-20T13:39:55Z</time>
      </trkpt>
      <trkpt lat="49.22028" lon="6.7075">
        <ele>258.4</ele>
        <time>2018-12-20T13:40:06Z</time>
      </trkpt>
      <trkpt lat="49.22027" lon="6.7073">
        <ele>258.5</ele>
        <time>2018-12-20T13:40:16Z</time>
      </trkpt>
      <trkpt lat="49.22023" lon="6.70707">
        <ele>258.5</ele>
        <time>2018-12-20T13:40:29Z</time>
      </trkpt>
      <trkpt lat="49.22019" lon="6.70687">
        <ele>258.6</ele>
        <time>2018-12-20T13:40:40Z</time>
      </trkpt>
      <trkpt lat="49.22014" lon="6.70667">
        <ele>258.6</ele>
        <time>2018-12-20T13:40:50Z</time>
      </trkpt>
      <trkpt lat="49.22006" lon="6.70648">
        <ele>258.6</ele>
        <time>2018-12-20T13:41:01Z</time>
      </trkpt>
      <trkpt lat="49.22002" lon="6.70628">
        <ele>258.7</ele>
        <time>2018-12-20T13:41:14Z</time>
      </trkpt>
      <trkpt lat="49.22" lon="6.70605">
        <ele>258.8</ele>
        <time>2018-12-20T13:41:29Z</time>
      </trkpt>
      <trkpt lat="49.21997" lon="6.70585">
        <ele>258.8</ele>
        <time>2018-12-20T13:41:40Z</time>
      </trkpt>
      <trkpt lat="49.2199" lon="6.70565">
        <ele>258.8</ele>
        <time>2018-12-20T13:41:48Z</time>
      </trkpt>
      <trkpt lat="49.21981" lon="6.70549">
        <ele>258.9</ele>
        <time>2018-12-20T13:41:55Z</time>
      </trkpt>
      <trkpt lat="49.21971" lon="6.70534">
        <ele>258.9</ele>
        <time>2018-12-20T13:42:03Z</time>
      </trkpt>
      <trkpt lat="49.21966" lon="6.70516">
        <ele>259</ele>
        <time>2018-12-20T13:42:14Z</time>
      </trkpt>
      <trkpt lat="49.21962" lon="6.70494">
        <ele>259</ele>
        <time>2018-12-20T13:42:27Z</time>
      </trkpt>
      <trkpt lat="49.21956" lon="6.70476">
        <ele>259.1</ele>
        <time>2018-12-20T13:42:38Z</time>
      </trkpt>
      <trkpt lat="49.21952" lon="6.70456">
        <ele>259.1</ele>
        <time>2018-12-20T13:42:54Z</time>
      </trkpt>
      <trkpt lat="49.2195" lon="6.70434">
        <ele>259.2</ele>
        <time>2018-12-20T13:43:11Z</time>
      </trkpt>
      <trkpt lat="49.21947" lon="6.70414">
        <ele>259.2</ele>
        <time>2018-12-20T13:43:21Z</time>
      </trkpt>
      <trkpt lat="49.21942" lon="6.70392">
        <ele>259.3</ele>
        <time>2018-12-20T13:43:29Z</time>
      </trkpt>
      <trkpt lat="49.21941" lon="6.70372">
        <ele>259.3</ele>
        <time>2018-12-20T13:43:39Z</time>
      </trkpt>
      <trkpt lat="49.2194" lon="6.70351">
        <ele>259.4</ele>
        <time>2018-12-20T13:43:51Z</time>
      </trkpt>
      <trkpt lat="49.21938" lon="6.70331">
        <ele>259.4</ele>
        <time>2018-12-20T13:44:02Z</time>
      </trkpt>
      <trkpt lat="49.21932" lon="6.7031">
        <ele>259.5</ele>
        <time>2018-12-20T13:44:15Z</time>
      </trkpt>
      <trkpt lat="49.21926" lon="6.70291">
        <ele>259.5</ele>
        <time>2018-12-20T13:44:27Z</time>
      </trkpt>
      <trkpt lat="49.2192" lon="6.70275">
        <ele>259.6</ele>
        <time>2018-12-20T13:44:36Z</time>
      </trkpt>
      <trkpt lat="49.21919" lon="6.70273">
        <ele>259.6</ele>
        <time>2018-12-20T13:44:37Z</time>
      </trkpt>
      <trkpt lat="49.21919" lon="6.70271">
        <ele>259.6</ele>
        <time>2018-12-20T13:44:38Z</time>
      </trkpt>
      <trkpt lat="49.21912" lon="6.70252">
        <ele>260.2</ele>
        <time>2018-12-20T13:44:50Z</time>
      </trkpt>
      <trkpt lat="49.21908" lon="6.70231">
        <ele>260.8</ele>
        <time>2018-12-20T13:45:03Z</time>
      </trkpt>
      <trkpt lat="49.21905" lon="6.70211">
        <ele>261.2</ele>
        <time>2018-12-20T13:45:13Z</time>
      </trkpt>
      <trkpt lat="49.21904" lon="6.70189">
        <ele>261.7</ele>
        <time>2018-12-20T13:45:24Z</time>
      </trkpt>
      <trkpt lat="49.21902" lon="6.70167">
        <ele>262.3</ele>
        <time>2018-12-20T13:45:36Z</time>
      </trkpt>
      <trkpt lat="49.21898" lon="6.70155">
        <ele>262.6</ele>
        <time>2018-12-20T13:45:43Z</time>
      </trkpt>
      <trkpt lat="49.21896" lon="6.70148">
        <ele>262.8</ele>
        <time>2018-12-20T13:45:47Z</time>
      </trkpt>
      <trkpt lat="49.21893" lon="6.70128">
        <ele>263.4</ele>
        <time>2018-12-20T13:45:59Z</time>
      </trkpt>
      <trkpt lat="49.21892" lon="6.70106">
        <ele>264.1</ele>
        <time>2018-12-20T13:46:12Z</time>
      </trkpt>
      <trkpt lat="49.21885" lon="6.70088">
        <ele>264.8</ele>
        <time>2018-12-20T13:46:26Z</time>
      </trkpt>
      <trkpt lat="49.21873" lon="6.70076">
        <ele>265.4</ele>
        <time>2018-12-20T13:46:39Z</time>
      </trkpt>
      <trkpt lat="49.21869" lon="6.70072">
        <ele>265.6</ele>
        <time>2018-12-20T13:46:43Z</time>
      </trkpt>
      <trkpt lat="49.2186" lon="6.70064">
        <ele>265.5</ele>
        <time>2018-12-20T13:46:51Z</time>
      </trkpt>
      <trkpt lat="49.21849" lon="6.7005">
        <ele>265.3</ele>
        <time>2018-12-20T13:47:03Z</time>
      </trkpt>
      <trkpt lat="49.21837" lon="6.70038">
        <ele>265.1</ele>
        <time>2018-12-20T13:47:13Z</time>
      </trkpt>
      <trkpt lat="49.21825" lon="6.70026">
        <ele>264.9</ele>
        <time>2018-12-20T13:47:23Z</time>
      </trkpt>
      <trkpt lat="49.21814" lon="6.7001">
        <ele>264.6</ele>
        <time>2018-12-20T13:47:34Z</time>
      </trkpt>
      <trkpt lat="49.21805" lon="6.69992">
        <ele>264.5</ele>
        <time>2018-12-20T13:47:43Z</time>
      </trkpt>
      <trkpt lat="49.218" lon="6.69973">
        <ele>264.3</ele>
        <time>2018-12-20T13:47:53Z</time>
      </trkpt>
      <trkpt lat="49.21795" lon="6.69953">
        <ele>264</ele>
        <time>2018-12-20T13:48:04Z</time>
      </trkpt>
      <trkpt lat="49.21789" lon="6.69935">
        <ele>263.8</ele>
        <time>2018-12-20T13:48:17Z</time>
      </trkpt>
      <trkpt lat="49.21782" lon="6.69915">
        <ele>263.4</ele>
        <time>2018-12-20T13:48:35Z</time>
      </trkpt>
      <trkpt lat="49.21776" lon="6.69896">
        <ele>263</ele>
        <time>2018-12-20T13:48:53Z</time>
      </trkpt>
      <trkpt lat="49.21772" lon="6.69876">
        <ele>262.8</ele>
        <time>2018-12-20T13:49:04Z</time>
      </trkpt>
      <trkpt lat="49.21769" lon="6.69853">
        <ele>262.7</ele>
        <time>2018-12-20T13:49:10Z</time>
      </trkpt>
      <trkpt lat="49.21762" lon="6.69836">
        <ele>262.6</ele>
        <time>2018-12-20T13:49:16Z</time>
      </trkpt>
      <trkpt lat="49.2175" lon="6.69818">
        <ele>262.4</ele>
        <time>2018-12-20T13:49:23Z</time>
      </trkpt>
      <trkpt lat="49.21744" lon="6.69805">
        <ele>262.3</ele>
        <time>2018-12-20T13:49:29Z</time>
      </trkpt>
      <trkpt lat="49.21742" lon="6.69801">
        <ele>262.3</ele>
        <time>2018-12-20T13:49:31Z</time>
      </trkpt>
      <trkpt lat="49.21735" lon="6.69777">
        <ele>262.5</ele>
        <time>2018-12-20T13:49:42Z</time>
      </trkpt>
      <trkpt lat="49.21732" lon="6.69753">
        <ele>262.7</ele>
        <time>2018-12-20T13:49:56Z</time>
      </trkpt>
      <trkpt lat="49.21738" lon="6.69733">
        <ele>263</ele>
        <time>2018-12-20T13:50:09Z</time>
      </trkpt>
      <trkpt lat="49.21748" lon="6.69719">
        <ele>263.1</ele>
        <time>2018-12-20T13:50:20Z</time>
      </trkpt>
      <trkpt lat="49.2176" lon="6.69709">
        <ele>263.4</ele>
        <time>2018-12-20T13:50:34Z</time>
      </trkpt>
      <trkpt lat="49.21766" lon="6.69702">
        <ele>263.5</ele>
        <time>2018-12-20T13:50:43Z</time>
      </trkpt>
      <trkpt lat="49.21774" lon="6.69698">
        <ele>263.8</ele>
        <time>2018-12-20T13:50:59Z</time>
      </trkpt>
      <trkpt lat="49.21785" lon="6.69694">
        <ele>264.1</ele>
        <time>2018-12-20T13:51:18Z</time>
      </trkpt>
      <trkpt lat="49.21793" lon="6.69689">
        <ele>264.3</ele>
        <time>2018-12-20T13:51:28Z</time>
      </trkpt>
      <trkpt lat="49.21802" lon="6.69677">
        <ele>264.5</ele>
        <time>2018-12-20T13:51:39Z</time>
      </trkpt>
      <trkpt lat="49.21815" lon="6.69667">
        <ele>264.7</ele>
        <time>2018-12-20T13:51:51Z</time>
      </trkpt>
      <trkpt lat="49.21828" lon="6.69661">
        <ele>264.9</ele>
        <time>2018-12-20T13:52:01Z</time>
      </trkpt>
      <trkpt lat="49.21842" lon="6.69658">
        <ele>265</ele>
        <time>2018-12-20T13:52:09Z</time>
      </trkpt>
      <trkpt lat="49.21857" lon="6.69655">
        <ele>265.1</ele>
        <time>2018-12-20T13:52:15Z</time>
      </trkpt>
      <trkpt lat="49.2187" lon="6.69648">
        <ele>265.2</ele>
        <time>2018-12-20T13:52:22Z</time>
      </trkpt>
      <trkpt lat="49.21878" lon="6.69643">
        <ele>265.4</ele>
        <time>2018-12-20T13:52:29Z</time>
      </trkpt>
      <trkpt lat="49.21884" lon="6.6964">
        <ele>265.7</ele>
        <time>2018-12-20T13:52:34Z</time>
      </trkpt>
      <trkpt lat="49.21898" lon="6.69637">
        <ele>266.5</ele>
        <time>2018-12-20T13:52:46Z</time>
      </trkpt>
      <trkpt lat="49.21913" lon="6.69635">
        <ele>267.1</ele>
        <time>2018-12-20T13:52:56Z</time>
      </trkpt>
      <trkpt lat="49.21926" lon="6.69637">
        <ele>267.6</ele>
        <time>2018-12-20T13:53:03Z</time>
      </trkpt>
      <trkpt lat="49.2194" lon="6.6964">
        <ele>268.1</ele>
        <time>2018-12-20T13:53:11Z</time>
      </trkpt>
      <trkpt lat="49.21949" lon="6.69641">
        <ele>268.5</ele>
        <time>2018-12-20T13:53:17Z</time>
      </trkpt>
      <trkpt lat="49.21953" lon="6.69642">
        <ele>268.4</ele>
        <time>2018-12-20T13:53:20Z</time>
      </trkpt>
      <trkpt lat="49.21968" lon="6.69645">
        <ele>267.8</ele>
        <time>2018-12-20T13:53:32Z</time>
      </trkpt>
      <trkpt lat="49.21981" lon="6.69644">
        <ele>267</ele>
        <time>2018-12-20T13:53:46Z</time>
      </trkpt>
      <trkpt lat="49.21994" lon="6.69646">
        <ele>266.4</ele>
        <time>2018-12-20T13:53:59Z</time>
      </trkpt>
      <trkpt lat="49.22006" lon="6.69652">
        <ele>265.8</ele>
        <time>2018-12-20T13:54:09Z</time>
      </trkpt>
      <trkpt lat="49.22021" lon="6.69655">
        <ele>265.3</ele>
        <time>2018-12-20T13:54:18Z</time>
      </trkpt>
      <trkpt lat="49.22027" lon="6.69657">
        <ele>265.1</ele>
        <time>2018-12-20T13:54:23Z</time>
      </trkpt>
      <trkpt lat="49.22036" lon="6.69659">
        <ele>264.4</ele>
        <time>2018-12-20T13:54:29Z</time>
      </trkpt>
      <trkpt lat="49.2205" lon="6.69664">
        <ele>263</ele>
        <time>2018-12-20T13:54:41Z</time>
      </trkpt>
      <trkpt lat="49.22063" lon="6.69669">
        <ele>261.7</ele>
        <time>2018-12-20T13:54:52Z</time>
      </trkpt>
      <trkpt lat="49.2207" lon="6.69672">
        <ele>260.9</ele>
        <time>2018-12-20T13:54:59Z</time>
      </trkpt>
      <trkpt lat="49.22076" lon="6.69675">
        <ele>259.9</ele>
        <time>2018-12-20T13:55:05Z</time>
      </trkpt>
      <trkpt lat="49.22085" lon="6.69684">
        <ele>257.9</ele>
        <time>2018-12-20T13:55:16Z</time>
      </trkpt>
      <trkpt lat="49.22088" lon="6.69686">
        <ele>257.5</ele>
        <time>2018-12-20T13:55:19Z</time>
      </trkpt>
      <trkpt lat="49.22101" lon="6.69694">
        <ele>255.6</ele>
        <time>2018-12-20T13:55:34Z</time>
      </trkpt>
      <trkpt lat="49.22106" lon="6.69696">
        <ele>254.8</ele>
        <time>2018-12-20T13:55:40Z</time>
      </trkpt>
      <trkpt lat="49.22114" lon="6.69699">
        <ele>253.6</ele>
        <time>2018-12-20T13:55:49Z</time>
      </trkpt>
      <trkpt lat="49.22128" lon="6.69702">
        <ele>252</ele>
        <time>2018-12-20T13:56:01Z</time>
      </trkpt>
      <trkpt lat="49.22142" lon="6.69693">
        <ele>249.7</ele>
        <time>2018-12-20T13:56:10Z</time>
      </trkpt>
      <trkpt lat="49.22142" lon="6.69693">
        <ele>249.7</ele>
        <time>2018-12-20T14:00:35Z</time>
      </trkpt>
      <trkpt lat="49.22154" lon="6.69684">
        <ele>247.8</ele>
        <time>2018-12-20T14:00:36Z</time>
      </trkpt>
      <trkpt lat="49.22154" lon="6.6968">
        <ele>247.7</ele>
        <time>2018-12-20T14:00:42Z</time>
      </trkpt>
      <trkpt lat="49.22152" lon="6.69666">
        <ele>247.6</ele>
        <time>2018-12-20T14:00:54Z</time>
      </trkpt>
      <trkpt lat="49.22153" lon="6.69661">
        <ele>247.5</ele>
        <time>2018-12-20T14:00:58Z</time>
      </trkpt>
      <trkpt lat="49.22154" lon="6.69655">
        <ele>247.3</ele>
        <time>2018-12-20T14:01:03Z</time>
      </trkpt>
      <trkpt lat="49.2216" lon="6.69636">
        <ele>246.7</ele>
        <time>2018-12-20T14:01:14Z</time>
      </trkpt>
      <trkpt lat="49.22167" lon="6.69618">
        <ele>246.2</ele>
        <time>2018-12-20T14:01:24Z</time>
      </trkpt>
      <trkpt lat="49.22171" lon="6.69599">
        <ele>245.6</ele>
        <time>2018-12-20T14:01:35Z</time>
      </trkpt>
      <trkpt lat="49.22172" lon="6.69577">
        <ele>244.9</ele>
        <time>2018-12-20T14:01:49Z</time>
      </trkpt>
      <trkpt lat="49.22176" lon="6.69555">
        <ele>244.2</ele>
        <time>2018-12-20T14:02:02Z</time>
      </trkpt>
      <trkpt lat="49.22178" lon="6.69553">
        <ele>244.1</ele>
        <time>2018-12-20T14:02:04Z</time>
      </trkpt>
      <trkpt lat="49.22185" lon="6.69539">
        <ele>243.5</ele>
        <time>2018-12-20T14:02:14Z</time>
      </trkpt>
      <trkpt lat="49.22194" lon="6.69524">
        <ele>242.7</ele>
        <time>2018-12-20T14:02:26Z</time>
      </trkpt>
      <trkpt lat="49.22205" lon="6.6951">
        <ele>241.8</ele>
        <time>2018-12-20T14:02:39Z</time>
      </trkpt>
      <trkpt lat="49.22216" lon="6.69495">
        <ele>241</ele>
        <time>2018-12-20T14:02:52Z</time>
      </trkpt>
      <trkpt lat="49.22221" lon="6.6949">
        <ele>240.6</ele>
        <time>2018-12-20T14:02:57Z</time>
      </trkpt>
      <trkpt lat="49.22227" lon="6.69484">
        <ele>240.4</ele>
        <time>2018-12-20T14:03:03Z</time>
      </trkpt>
      <trkpt lat="49.2224" lon="6.69478">
        <ele>240.1</ele>
        <time>2018-12-20T14:03:13Z</time>
      </trkpt>
      <trkpt lat="49.22253" lon="6.6947">
        <ele>239.7</ele>
        <time>2018-12-20T14:03:23Z</time>
      </trkpt>
      <trkpt lat="49.22265" lon="6.69459">
        <ele>239.4</ele>
        <time>2018-12-20T14:03:33Z</time>
      </trkpt>
      <trkpt lat="49.22278" lon="6.69448">
        <ele>238.9</ele>
        <time>2018-12-20T14:03:46Z</time>
      </trkpt>
      <trkpt lat="49.2229" lon="6.69437">
        <ele>238.4</ele>
        <time>2018-12-20T14:04:01Z</time>
      </trkpt>
      <trkpt lat="49.22302" lon="6.69424">
        <ele>238</ele>
        <time>2018-12-20T14:04:15Z</time>
      </trkpt>
      <trkpt lat="49.22311" lon="6.69414">
        <ele>237.5</ele>
        <time>2018-12-20T14:04:27Z</time>
      </trkpt>
      <trkpt lat="49.22314" lon="6.69412">
        <ele>237.4</ele>
        <time>2018-12-20T14:04:30Z</time>
      </trkpt>
      <trkpt lat="49.22324" lon="6.69397">
        <ele>236.9</ele>
        <time>2018-12-20T14:04:48Z</time>
      </trkpt>
      <trkpt lat="49.22334" lon="6.69382">
        <ele>236.4</ele>
        <time>2018-12-20T14:05:05Z</time>
      </trkpt>
      <trkpt lat="49.22346" lon="6.69369">
        <ele>236</ele>
        <time>2018-12-20T14:05:18Z</time>
      </trkpt>
      <trkpt lat="49.22357" lon="6.69357">
        <ele>235.7</ele>
        <time>2018-12-20T14:05:27Z</time>
      </trkpt>
      <trkpt lat="49.22369" lon="6.69345">
        <ele>235.4</ele>
        <time>2018-12-20T14:05:37Z</time>
      </trkpt>
      <trkpt lat="49.2238" lon="6.69332">
        <ele>235.1</ele>
        <time>2018-12-20T14:05:47Z</time>
      </trkpt>
      <trkpt lat="49.22391" lon="6.69319">
        <ele>234.8</ele>
        <time>2018-12-20T14:05:56Z</time>
      </trkpt>
      <trkpt lat="49.22402" lon="6.69305">
        <ele>234.5</ele>
        <time>2018-12-20T14:06:05Z</time>
      </trkpt>
      <trkpt lat="49.22408" lon="6.69298">
        <ele>234.4</ele>
        <time>2018-12-20T14:06:09Z</time>
      </trkpt>
      <trkpt lat="49.22415" lon="6.69288">
        <ele>234.2</ele>
        <time>2018-12-20T14:06:14Z</time>
      </trkpt>
      <trkpt lat="49.22426" lon="6.69271">
        <ele>233.6</ele>
        <time>2018-12-20T14:06:27Z</time>
      </trkpt>
      <trkpt lat="49.22435" lon="6.69255">
        <ele>232.9</ele>
        <time>2018-12-20T14:06:42Z</time>
      </trkpt>
      <trkpt lat="49.22446" lon="6.69241">
        <ele>232.2</ele>
        <time>2018-12-20T14:06:58Z</time>
      </trkpt>
      <trkpt lat="49.22458" lon="6.69229">
        <ele>231.5</ele>
        <time>2018-12-20T14:07:13Z</time>
      </trkpt>
      <trkpt lat="49.22467" lon="6.69218">
        <ele>231.1</ele>
        <time>2018-12-20T14:07:21Z</time>
      </trkpt>
      <trkpt lat="49.2247" lon="6.69215">
        <ele>230.9</ele>
        <time>2018-12-20T14:07:23Z</time>
      </trkpt>
      <trkpt lat="49.22477" lon="6.69199">
        <ele>230.2</ele>
        <time>2018-12-20T14:07:31Z</time>
      </trkpt>
      <trkpt lat="49.2248" lon="6.69177">
        <ele>229.1</ele>
        <time>2018-12-20T14:07:43Z</time>
      </trkpt>
      <trkpt lat="49.22481" lon="6.69155">
        <ele>227.9</ele>
        <time>2018-12-20T14:07:56Z</time>
      </trkpt>
      <trkpt lat="49.22482" lon="6.69143">
        <ele>227.3</ele>
        <time>2018-12-20T14:08:03Z</time>
      </trkpt>
      <trkpt lat="49.22483" lon="6.69134">
        <ele>226.6</ele>
        <time>2018-12-20T14:08:08Z</time>
      </trkpt>
      <trkpt lat="49.22482" lon="6.69114">
        <ele>224.4</ele>
        <time>2018-12-20T14:08:23Z</time>
      </trkpt>
      <trkpt lat="49.22483" lon="6.69108">
        <ele>223.8</ele>
        <time>2018-12-20T14:08:27Z</time>
      </trkpt>
      <trkpt lat="49.22483" lon="6.691">
        <ele>222.5</ele>
        <time>2018-12-20T14:08:33Z</time>
      </trkpt>
      <trkpt lat="49.22483" lon="6.69092">
        <ele>221.6</ele>
        <time>2018-12-20T14:08:38Z</time>
      </trkpt>
      <trkpt lat="49.22488" lon="6.69071">
        <ele>219.2</ele>
        <time>2018-12-20T14:08:52Z</time>
      </trkpt>
      <trkpt lat="49.22491" lon="6.69041">
        <ele>215.9</ele>
        <time>2018-12-20T14:09:00Z</time>
      </trkpt>
      <trkpt lat="49.22491" lon="6.69041">
        <ele>215.9</ele>
        <time>2018-12-20T14:10:44Z</time>
      </trkpt>
      <trkpt lat="49.22493" lon="6.69017">
        <ele>213.4</ele>
        <time>2018-12-20T14:10:54Z</time>
      </trkpt>
      <trkpt lat="49.22494" lon="6.69011">
        <ele>212.7</ele>
        <time>2018-12-20T14:10:59Z</time>
      </trkpt>
      <trkpt lat="49.22498" lon="6.6899">
        <ele>210.5</ele>
        <time>2018-12-20T14:11:14Z</time>
      </trkpt>
      <trkpt lat="49.22499" lon="6.68984">
        <ele>210</ele>
        <time>2018-12-20T14:11:18Z</time>
      </trkpt>
      <trkpt lat="49.22499" lon="6.68968">
        <ele>208.7</ele>
        <time>2018-12-20T14:11:29Z</time>
      </trkpt>
      <trkpt lat="49.22498" lon="6.68959">
        <ele>207.9</ele>
        <time>2018-12-20T14:11:36Z</time>
      </trkpt>
      <trkpt lat="49.22496" lon="6.6895">
        <ele>207.5</ele>
        <time>2018-12-20T14:11:44Z</time>
      </trkpt>
      <trkpt lat="49.22494" lon="6.68946">
        <ele>207.3</ele>
        <time>2018-12-20T14:11:48Z</time>
      </trkpt>
      <trkpt lat="49.22488" lon="6.68936">
        <ele>207</ele>
        <time>2018-12-20T14:12:01Z</time>
      </trkpt>
      <trkpt lat="49.22476" lon="6.68926">
        <ele>206.7</ele>
        <time>2018-12-20T14:12:18Z</time>
      </trkpt>
      <trkpt lat="49.22463" lon="6.68918">
        <ele>206.5</ele>
        <time>2018-12-20T14:12:32Z</time>
      </trkpt>
      <trkpt lat="49.2245" lon="6.68909">
        <ele>206.3</ele>
        <time>2018-12-20T14:12:44Z</time>
      </trkpt>
      <trkpt lat="49.22436" lon="6.68906">
        <ele>206</ele>
        <time>2018-12-20T14:12:57Z</time>
      </trkpt>
      <trkpt lat="49.22421" lon="6.68905">
        <ele>205.8</ele>
        <time>2018-12-20T14:13:10Z</time>
      </trkpt>
      <trkpt lat="49.22407" lon="6.68902">
        <ele>205.6</ele>
        <time>2018-12-20T14:13:20Z</time>
      </trkpt>
      <trkpt lat="49.22392" lon="6.689">
        <ele>205.5</ele>
        <time>2018-12-20T14:13:30Z</time>
      </trkpt>
      <trkpt lat="49.22378" lon="6.689">
        <ele>205.2</ele>
        <time>2018-12-20T14:13:43Z</time>
      </trkpt>
      <trkpt lat="49.22365" lon="6.68904">
        <ele>205</ele>
        <time>2018-12-20T14:13:56Z</time>
      </trkpt>
      <trkpt lat="49.2235" lon="6.68911">
        <ele>204.8</ele>
        <time>2018-12-20T14:14:07Z</time>
      </trkpt>
      <trkpt lat="49.22336" lon="6.68918">
        <ele>204.6</ele>
        <time>2018-12-20T14:14:18Z</time>
      </trkpt>
      <trkpt lat="49.22321" lon="6.68923">
        <ele>204.4</ele>
        <time>2018-12-20T14:14:32Z</time>
      </trkpt>
      <trkpt lat="49.22308" lon="6.6893">
        <ele>204.1</ele>
        <time>2018-12-20T14:14:47Z</time>
      </trkpt>
      <trkpt lat="49.22297" lon="6.68936">
        <ele>203.9</ele>
        <time>2018-12-20T14:15:00Z</time>
      </trkpt>
      <trkpt lat="49.22295" lon="6.68937">
        <ele>203.9</ele>
        <time>2018-12-20T14:15:02Z</time>
      </trkpt>
      <trkpt lat="49.22283" lon="6.68947">
        <ele>203.9</ele>
        <time>2018-12-20T14:15:14Z</time>
      </trkpt>
      <trkpt lat="49.22273" lon="6.68964">
        <ele>203.9</ele>
        <time>2018-12-20T14:15:24Z</time>
      </trkpt>
      <trkpt lat="49.22265" lon="6.68983">
        <ele>203.9</ele>
        <time>2018-12-20T14:15:36Z</time>
      </trkpt>
      <trkpt lat="49.2226" lon="6.68999">
        <ele>204</ele>
        <time>2018-12-20T14:15:51Z</time>
      </trkpt>
      <trkpt lat="49.22254" lon="6.69007">
        <ele>204</ele>
        <time>2018-12-20T14:16:02Z</time>
      </trkpt>
      <trkpt lat="49.22247" lon="6.69016">
        <ele>204</ele>
        <time>2018-12-20T14:16:09Z</time>
      </trkpt>
      <trkpt lat="49.22238" lon="6.69031">
        <ele>204</ele>
        <time>2018-12-20T14:16:22Z</time>
      </trkpt>
      <trkpt lat="49.22226" lon="6.69045">
        <ele>204</ele>
        <time>2018-12-20T14:16:35Z</time>
      </trkpt>
      <trkpt lat="49.22225" lon="6.69046">
        <ele>204</ele>
        <time>2018-12-20T14:16:36Z</time>
      </trkpt>
      <trkpt lat="49.22216" lon="6.69058">
        <ele>204.1</ele>
        <time>2018-12-20T14:16:44Z</time>
      </trkpt>
      <trkpt lat="49.22205" lon="6.69072">
        <ele>204.1</ele>
        <time>2018-12-20T14:16:52Z</time>
      </trkpt>
      <trkpt lat="49.22192" lon="6.69083">
        <ele>204.1</ele>
        <time>2018-12-20T14:16:59Z</time>
      </trkpt>
      <trkpt lat="49.22177" lon="6.6909">
        <ele>204.1</ele>
        <time>2018-12-20T14:17:10Z</time>
      </trkpt>
      <trkpt lat="49.22164" lon="6.69087">
        <ele>204.2</ele>
        <time>2018-12-20T14:17:29Z</time>
      </trkpt>
      <trkpt lat="49.22151" lon="6.69083">
        <ele>204.2</ele>
        <time>2018-12-20T14:17:48Z</time>
      </trkpt>
      <trkpt lat="49.22141" lon="6.69085">
        <ele>204.2</ele>
        <time>2018-12-20T14:17:59Z</time>
      </trkpt>
      <trkpt lat="49.22131" lon="6.69083">
        <ele>204.2</ele>
        <time>2018-12-20T14:18:07Z</time>
      </trkpt>
      <trkpt lat="49.22119" lon="6.69074">
        <ele>204.2</ele>
        <time>2018-12-20T14:18:15Z</time>
      </trkpt>
      <trkpt lat="49.22107" lon="6.69064">
        <ele>204.3</ele>
        <time>2018-12-20T14:18:22Z</time>
      </trkpt>
      <trkpt lat="49.22094" lon="6.69054">
        <ele>204.3</ele>
        <time>2018-12-20T14:18:29Z</time>
      </trkpt>
      <trkpt lat="49.2208" lon="6.69047">
        <ele>204.3</ele>
        <time>2018-12-20T14:18:39Z</time>
      </trkpt>
      <trkpt lat="49.22066" lon="6.69043">
        <ele>204.3</ele>
        <time>2018-12-20T14:18:51Z</time>
      </trkpt>
      <trkpt lat="49.22052" lon="6.69043">
        <ele>204.3</ele>
        <time>2018-12-20T14:19:02Z</time>
      </trkpt>
      <trkpt lat="49.2204" lon="6.69052">
        <ele>204.4</ele>
        <time>2018-12-20T14:19:12Z</time>
      </trkpt>
      <trkpt lat="49.2203" lon="6.69069">
        <ele>204.4</ele>
        <time>2018-12-20T14:19:25Z</time>
      </trkpt>
      <trkpt lat="49.22022" lon="6.69085">
        <ele>204.4</ele>
        <time>2018-12-20T14:19:36Z</time>
      </trkpt>
      <trkpt lat="49.22017" lon="6.69093">
        <ele>204.4</ele>
        <time>2018-12-20T14:19:42Z</time>
      </trkpt>
      <trkpt lat="49.22012" lon="6.69103">
        <ele>204.4</ele>
        <time>2018-12-20T14:19:48Z</time>
      </trkpt>
      <trkpt lat="49.22007" lon="6.69124">
        <ele>204.5</ele>
        <time>2018-12-20T14:19:59Z</time>
      </trkpt>
      <trkpt lat="49.22003" lon="6.69144">
        <ele>204.5</ele>
        <time>2018-12-20T14:20:11Z</time>
      </trkpt>
      <trkpt lat="49.21996" lon="6.69163">
        <ele>204.5</ele>
        <time>2018-12-20T14:20:22Z</time>
      </trkpt>
      <trkpt lat="49.21989" lon="6.69183">
        <ele>204.5</ele>
        <time>2018-12-20T14:20:34Z</time>
      </trkpt>
      <trkpt lat="49.21984" lon="6.69202">
        <ele>204.5</ele>
        <time>2018-12-20T14:20:45Z</time>
      </trkpt>
      <trkpt lat="49.21978" lon="6.69223">
        <ele>204.6</ele>
        <time>2018-12-20T14:20:59Z</time>
      </trkpt>
      <trkpt lat="49.21972" lon="6.69243">
        <ele>204.6</ele>
        <time>2018-12-20T14:21:13Z</time>
      </trkpt>
      <trkpt lat="49.21962" lon="6.69257">
        <ele>204.6</ele>
        <time>2018-12-20T14:21:30Z</time>
      </trkpt>
      <trkpt lat="49.21948" lon="6.69265">
        <ele>204.7</ele>
        <time>2018-12-20T14:21:47Z</time>
      </trkpt>
      <trkpt lat="49.21934" lon="6.69268">
        <ele>204.7</ele>
        <time>2018-12-20T14:21:58Z</time>
      </trkpt>
      <trkpt lat="49.21919" lon="6.69269">
        <ele>204.7</ele>
        <time>2018-12-20T14:22:07Z</time>
      </trkpt>
      <trkpt lat="49.21903" lon="6.69272">
        <ele>204.7</ele>
        <time>2018-12-20T14:22:17Z</time>
      </trkpt>
      <trkpt lat="49.2189" lon="6.69276">
        <ele>204.8</ele>
        <time>2018-12-20T14:22:27Z</time>
      </trkpt>
      <trkpt lat="49.21877" lon="6.69281">
        <ele>204.8</ele>
        <time>2018-12-20T14:22:38Z</time>
      </trkpt>
      <trkpt lat="49.21865" lon="6.69292">
        <ele>204.8</ele>
        <time>2018-12-20T14:22:51Z</time>
      </trkpt>
      <trkpt lat="49.21856" lon="6.6931">
        <ele>204.8</ele>
        <time>2018-12-20T14:23:05Z</time>
      </trkpt>
      <trkpt lat="49.21849" lon="6.69327">
        <ele>204.9</ele>
        <time>2018-12-20T14:23:20Z</time>
      </trkpt>
      <trkpt lat="49.21839" lon="6.69337">
        <ele>204.9</ele>
        <time>2018-12-20T14:23:33Z</time>
      </trkpt>
      <trkpt lat="49.21827" lon="6.69346">
        <ele>204.9</ele>
        <time>2018-12-20T14:23:43Z</time>
      </trkpt>
      <trkpt lat="49.21817" lon="6.69361">
        <ele>204.9</ele>
        <time>2018-12-20T14:23:54Z</time>
      </trkpt>
      <trkpt lat="49.2181" lon="6.69378">
        <ele>204.9</ele>
        <time>2018-12-20T14:24:04Z</time>
      </trkpt>
      <trkpt lat="49.21803" lon="6.69397">
        <ele>205</ele>
        <time>2018-12-20T14:24:12Z</time>
      </trkpt>
      <trkpt lat="49.21795" lon="6.69415">
        <ele>205</ele>
        <time>2018-12-20T14:24:21Z</time>
      </trkpt>
      <trkpt lat="49.21786" lon="6.69433">
        <ele>205</ele>
        <time>2018-12-20T14:24:31Z</time>
      </trkpt>
      <trkpt lat="49.21778" lon="6.69452">
        <ele>205</ele>
        <time>2018-12-20T14:24:42Z</time>
      </trkpt>
      <trkpt lat="49.21773" lon="6.69472">
        <ele>205.1</ele>
        <time>2018-12-20T14:24:56Z</time>
      </trkpt>
      <trkpt lat="49.21764" lon="6.69487">
        <ele>205.1</ele>
        <time>2018-12-20T14:25:11Z</time>
      </trkpt>
      <trkpt lat="49.21752" lon="6.695">
        <ele>205.1</ele>
        <time>2018-12-20T14:25:23Z</time>
      </trkpt>
      <trkpt lat="49.2174" lon="6.69506">
        <ele>205.1</ele>
        <time>2018-12-20T14:25:37Z</time>
      </trkpt>
      <trkpt lat="49.21726" lon="6.69507">
        <ele>205.2</ele>
        <time>2018-12-20T14:25:51Z</time>
      </trkpt>
      <trkpt lat="49.21712" lon="6.69512">
        <ele>205.2</ele>
        <time>2018-12-20T14:26:04Z</time>
      </trkpt>
      <trkpt lat="49.21701" lon="6.69524">
        <ele>205.2</ele>
        <time>2018-12-20T14:26:19Z</time>
      </trkpt>
      <trkpt lat="49.21694" lon="6.69542">
        <ele>205.2</ele>
        <time>2018-12-20T14:26:32Z</time>
      </trkpt>
      <trkpt lat="49.21686" lon="6.69561">
        <ele>205.3</ele>
        <time>2018-12-20T14:26:44Z</time>
      </trkpt>
      <trkpt lat="49.21679" lon="6.69571">
        <ele>205.3</ele>
        <time>2018-12-20T14:26:51Z</time>
      </trkpt>
      <trkpt lat="49.21672" lon="6.69576">
        <ele>205.3</ele>
        <time>2018-12-20T14:26:56Z</time>
      </trkpt>
      <trkpt lat="49.21658" lon="6.69584">
        <ele>205.3</ele>
        <time>2018-12-20T14:27:04Z</time>
      </trkpt>
      <trkpt lat="49.21646" lon="6.69594">
        <ele>205.3</ele>
        <time>2018-12-20T14:27:12Z</time>
      </trkpt>
      <trkpt lat="49.21632" lon="6.69605">
        <ele>205.3</ele>
        <time>2018-12-20T14:27:20Z</time>
      </trkpt>
      <trkpt lat="49.2162" lon="6.69614">
        <ele>205.4</ele>
        <time>2018-12-20T14:27:28Z</time>
      </trkpt>
      <trkpt lat="49.21608" lon="6.69626">
        <ele>205.4</ele>
        <time>2018-12-20T14:27:37Z</time>
      </trkpt>
      <trkpt lat="49.21599" lon="6.69643">
        <ele>205.4</ele>
        <time>2018-12-20T14:27:45Z</time>
      </trkpt>
      <trkpt lat="49.21593" lon="6.69662">
        <ele>205.4</ele>
        <time>2018-12-20T14:27:56Z</time>
      </trkpt>
      <trkpt lat="49.21585" lon="6.69682">
        <ele>205.4</ele>
        <time>2018-12-20T14:28:13Z</time>
      </trkpt>
      <trkpt lat="49.21573" lon="6.69696">
        <ele>205.5</ele>
        <time>2018-12-20T14:28:29Z</time>
      </trkpt>
      <trkpt lat="49.21568" lon="6.69704">
        <ele>205.5</ele>
        <time>2018-12-20T14:28:36Z</time>
      </trkpt>
      <trkpt lat="49.21556" lon="6.69714">
        <ele>205.5</ele>
        <time>2018-12-20T14:28:52Z</time>
      </trkpt>
      <trkpt lat="49.21554" lon="6.69716">
        <ele>205.5</ele>
        <time>2018-12-20T14:28:55Z</time>
      </trkpt>
      <trkpt lat="49.21552" lon="6.69717">
        <ele>205.5</ele>
        <time>2018-12-20T14:28:58Z</time>
      </trkpt>
      <trkpt lat="49.21552" lon="6.69718">
        <ele>205.5</ele>
        <time>2018-12-20T14:29:00Z</time>
      </trkpt>
    </trkseg>
  </trk>
</gpx>